sensor_id;sensor_type;location;lat;lon;timestamp;pressure;altitude;pressure_sealevel;temperature;humidity
57374;BME280;43964;53.890;25.340;2022-07-22T00:00:36;1023.9;;;21.7;57.5
57374;BME280;43964;53.890;25.340;2022-07-22T00:05:36;1023.8;;;21.6;57.9
57374;BME280;43964;53.890;25.340;2022-07-22T00:10:36;1023.8;;;21.7;57.7
57374;BME280;43964;53.890;25.340;2022-07-22T00:15:36;1023.8;;;21.8;57.3
57374;BME280;43964;53.890;25.340;2022-07-22T00:20:36;1023.8;;;21.9;56.6
57374;BME280;43964;53.890;25.340;2022-07-22T00:25:37;1023.8;;;22.1;56.1
57374;BME280;43964;53.890;25.340;2022-07-22T00:30:36;1023.8;;;22.2;55.8
57374;BME280;43964;53.890;25.340;2022-07-22T00:35:36;1023.8;;;22.3;55.4
57374;BME280;43964;53.890;25.340;2022-07-22T00:40:36;1023.8;;;22.3;55.2
57374;BME280;43964;53.890;25.340;2022-07-22T00:45:36;1023.8;;;22.4;54.8
57374;BME280;43964;53.890;25.340;2022-07-22T00:50:37;1023.8;;;22.4;54.8
57374;BME280;43964;53.890;25.340;2022-07-22T00:55:37;1023.8;;;22.2;55
57374;BME280;43964;53.890;25.340;2022-07-22T01:00:36;1023.7;;;22.1;55.4
57374;BME280;43964;53.890;25.340;2022-07-22T01:05:36;1023.7;;;22.1;55.5
57374;BME280;43964;53.890;25.340;2022-07-22T01:10:36;1023.7;;;22.1;55.7
57374;BME280;43964;53.890;25.340;2022-07-22T01:15:36;1023.7;;;22;55.7
57374;BME280;43964;53.890;25.340;2022-07-22T01:20:36;1023.7;;;22;55.7
57374;BME280;43964;53.890;25.340;2022-07-22T01:25:36;1023.8;;;22.1;55.5
57374;BME280;43964;53.890;25.340;2022-07-22T01:30:36;1023.8;;;22;55.6
57374;BME280;43964;53.890;25.340;2022-07-22T01:35:36;1023.8;;;21.8;55.8
57374;BME280;43964;53.890;25.340;2022-07-22T01:40:37;1023.7;;;21.6;54.8
57374;BME280;43964;53.890;25.340;2022-07-22T01:45:36;1023.7;;;21.6;56.3
57374;BME280;43964;53.890;25.340;2022-07-22T01:50:36;1023.8;;;21.7;56.1
57374;BME280;43964;53.890;25.340;2022-07-22T01:55:37;1023.8;;;21.7;56.1
57374;BME280;43964;53.890;25.340;2022-07-22T02:00:37;1023.7;;;21.7;55.5
57374;BME280;43964;53.890;25.340;2022-07-22T02:05:36;1023.7;;;21.5;56.3
57374;BME280;43964;53.890;25.340;2022-07-22T02:10:37;1023.7;;;21.5;56.3
57374;BME280;43964;53.890;25.340;2022-07-22T02:15:36;1023.7;;;21.4;55.9
57374;BME280;43964;53.890;25.340;2022-07-22T02:20:36;1023.7;;;21.4;55.8
57374;BME280;43964;53.890;25.340;2022-07-22T02:25:37;1023.7;;;21.4;56.6
57374;BME280;43964;53.890;25.340;2022-07-22T02:30:37;1023.7;;;21.5;56.2
57374;BME280;43964;53.890;25.340;2022-07-22T02:35:36;1023.7;;;21.7;55.8
57374;BME280;43964;53.890;25.340;2022-07-22T02:40:36;1023.7;;;21.8;55.4
57374;BME280;43964;53.890;25.340;2022-07-22T02:45:36;1023.7;;;22.1;54.7
57374;BME280;43964;53.890;25.340;2022-07-22T02:50:36;1023.6;;;23.8;50.9
57374;BME280;43964;53.890;25.340;2022-07-22T02:55:36;1023.6;;;25.3;49.2
57374;BME280;43964;53.890;25.340;2022-07-22T03:00:37;1023.5;;;26.4;45.2
57374;BME280;43964;53.890;25.340;2022-07-22T03:05:37;1023.5;;;27.2;42
57374;BME280;43964;53.890;25.340;2022-07-22T03:10:36;1023.5;;;29.1;38.9
57374;BME280;43964;53.890;25.340;2022-07-22T03:15:36;1023.5;;;30.6;35.9
57374;BME280;43964;53.890;25.340;2022-07-22T03:20:36;1023.5;;;31.5;33.3
57374;BME280;43964;53.890;25.340;2022-07-22T03:25:36;1023.6;;;33.2;33.1
57374;BME280;43964;53.890;25.340;2022-07-22T03:30:36;1023.7;;;34.3;31.2
57374;BME280;43964;53.890;25.340;2022-07-22T03:35:36;1023.6;;;35.3;30.7
57374;BME280;43964;53.890;25.340;2022-07-22T03:40:36;1023.6;;;36.5;28.1
57374;BME280;43964;53.890;25.340;2022-07-22T03:45:36;1023.6;;;37;26.9
57374;BME280;43964;53.890;25.340;2022-07-22T03:50:36;1023.6;;;38.5;24.8
57374;BME280;43964;53.890;25.340;2022-07-22T03:55:36;1023.6;;;39.3;24
57374;BME280;43964;53.890;25.340;2022-07-22T04:00:36;1023.7;;;40.3;22.9
57374;BME280;43964;53.890;25.340;2022-07-22T04:05:36;1023.7;;;41.2;22.2
57374;BME280;43964;53.890;25.340;2022-07-22T04:10:36;1023.8;;;42;21.5
57374;BME280;43964;53.890;25.340;2022-07-22T04:15:36;1023.9;;;42.8;20.8
57374;BME280;43964;53.890;25.340;2022-07-22T04:20:36;1023.9;;;43.3;19.2
57374;BME280;43964;53.890;25.340;2022-07-22T04:25:36;1023.9;;;43.8;18.2
57374;BME280;43964;53.890;25.340;2022-07-22T04:30:36;1023.9;;;44.4;17.7
57374;BME280;43964;53.890;25.340;2022-07-22T04:35:36;1024;;;45;17.1
57374;BME280;43964;53.890;25.340;2022-07-22T04:40:36;1024;;;45.5;16.7
57374;BME280;43964;53.890;25.340;2022-07-22T04:45:36;1024;;;46.1;16.3
57374;BME280;43964;53.890;25.340;2022-07-22T04:50:37;1023.9;;;46.8;16.3
57374;BME280;43964;53.890;25.340;2022-07-22T04:55:36;1024;;;47.6;15.7
57374;BME280;43964;53.890;25.340;2022-07-22T05:00:36;1023.9;;;48.1;15.4
57374;BME280;43964;53.890;25.340;2022-07-22T05:05:36;1023.9;;;48.8;15.3
57374;BME280;43964;53.890;25.340;2022-07-22T05:10:36;1024;;;49.5;14.8
57374;BME280;43964;53.890;25.340;2022-07-22T05:15:36;1024;;;50;14.4
57374;BME280;43964;53.890;25.340;2022-07-22T05:20:36;1024;;;50.4;14
57374;BME280;43964;53.890;25.340;2022-07-22T05:25:36;1024;;;50.2;12.7
57374;BME280;43964;53.890;25.340;2022-07-22T05:30:36;1024;;;50.3;12.8
57374;BME280;43964;53.890;25.340;2022-07-22T05:35:36;1024;;;50.3;13
57374;BME280;43964;53.890;25.340;2022-07-22T05:40:37;1024;;;48.5;14.7
57374;BME280;43964;53.890;25.340;2022-07-22T05:45:36;1024;;;48.5;14.7
57374;BME280;43964;53.890;25.340;2022-07-22T05:50:36;1024.1;;;41.5;20
57374;BME280;43964;53.890;25.340;2022-07-22T05:55:36;1024.1;;;39.8;21.4
57374;BME280;43964;53.890;25.340;2022-07-22T06:00:36;1024.1;;;38;23.4
57374;BME280;43964;53.890;25.340;2022-07-22T06:05:36;1024.1;;;37;25.1
57374;BME280;43964;53.890;25.340;2022-07-22T06:10:36;1024.1;;;36;27.3
57374;BME280;43964;53.890;25.340;2022-07-22T06:15:37;1024.1;;;35.3;28.3
57374;BME280;43964;53.890;25.340;2022-07-22T06:20:36;1024.1;;;34.8;29.6
57374;BME280;43964;53.890;25.340;2022-07-22T06:25:37;1024.1;;;34.5;30.3
57374;BME280;43964;53.890;25.340;2022-07-22T06:30:37;1024.1;;;34.4;29.3
57374;BME280;43964;53.890;25.340;2022-07-22T06:35:38;1024.1;;;34.3;30.4
57374;BME280;43964;53.890;25.340;2022-07-22T06:40:36;1024.1;;;34.2;30.6
57374;BME280;43964;53.890;25.340;2022-07-22T06:45:36;1024.1;;;34.1;30.9
57374;BME280;43964;53.890;25.340;2022-07-22T06:50:36;1024.2;;;34.2;31.5
57374;BME280;43964;53.890;25.340;2022-07-22T06:55:36;1024.2;;;34.2;31.4
57374;BME280;43964;53.890;25.340;2022-07-22T07:00:36;1024.1;;;34.3;30.8
57374;BME280;43964;53.890;25.340;2022-07-22T07:05:36;1024.1;;;34.3;31.1
57374;BME280;43964;53.890;25.340;2022-07-22T07:10:37;1024.1;;;34.3;31.2
57374;BME280;43964;53.890;25.340;2022-07-22T07:15:36;1024.1;;;34.3;31
57374;BME280;43964;53.890;25.340;2022-07-22T07:20:36;1024.1;;;34.3;31.5
57374;BME280;43964;53.890;25.340;2022-07-22T07:25:36;1024.1;;;34.3;31.1
57374;BME280;43964;53.890;25.340;2022-07-22T07:30:36;1024.1;;;34.3;31.1
57374;BME280;43964;53.890;25.340;2022-07-22T07:35:36;1024.1;;;34.3;31.1
57374;BME280;43964;53.890;25.340;2022-07-22T07:40:36;1024.1;;;34.1;32.1
57374;BME280;43964;53.890;25.340;2022-07-22T07:45:36;1024.1;;;34.2;31.9
57374;BME280;43964;53.890;25.340;2022-07-22T07:50:37;1024.1;;;34.2;31.5
57374;BME280;43964;53.890;25.340;2022-07-22T07:55:36;1024;;;34.1;30.6
57374;BME280;43964;53.890;25.340;2022-07-22T08:00:37;1024;;;34.1;31.2
57374;BME280;43964;53.890;25.340;2022-07-22T08:05:37;1024;;;34.1;31.4
57374;BME280;43964;53.890;25.340;2022-07-22T08:10:36;1024;;;34;31.3
57374;BME280;43964;53.890;25.340;2022-07-22T08:15:36;1024;;;34;30.9
57374;BME280;43964;53.890;25.340;2022-07-22T08:20:36;1024;;;33.9;31.1
57374;BME280;43964;53.890;25.340;2022-07-22T08:25:36;1024;;;33.9;30.9
57374;BME280;43964;53.890;25.340;2022-07-22T08:30:36;1024;;;33.7;31.6
57374;BME280;43964;53.890;25.340;2022-07-22T08:35:36;1023.9;;;33.7;30.9
57374;BME280;43964;53.890;25.340;2022-07-22T08:40:36;1023.9;;;33.5;31.6
57374;BME280;43964;53.890;25.340;2022-07-22T08:45:36;1023.9;;;33.5;31
57374;BME280;43964;53.890;25.340;2022-07-22T08:50:36;1023.9;;;33.6;31
57374;BME280;43964;53.890;25.340;2022-07-22T08:55:41;1023.9;;;33.7;31
57374;BME280;43964;53.890;25.340;2022-07-22T09:00:37;1023.9;;;33.8;31
57374;BME280;43964;53.890;25.340;2022-07-22T09:05:36;1023.9;;;33.7;31.2
57374;BME280;43964;53.890;25.340;2022-07-22T09:10:36;1023.9;;;33.6;31.6
57374;BME280;43964;53.890;25.340;2022-07-22T09:15:38;1024;;;33.5;31.4
57374;BME280;43964;53.890;25.340;2022-07-22T09:20:37;1023.9;;;33.4;31.5
57374;BME280;43964;53.890;25.340;2022-07-22T09:25:37;1023.9;;;33.3;30.9
57374;BME280;43964;53.890;25.340;2022-07-22T09:30:38;1023.9;;;33.1;31.2
57374;BME280;43964;53.890;25.340;2022-07-22T09:35:37;1023.9;;;33;31.9
57374;BME280;43964;53.890;25.340;2022-07-22T09:40:38;1023.9;;;33;31.8
57374;BME280;43964;53.890;25.340;2022-07-22T09:45:36;1023.9;;;32.9;32.2
57374;BME280;43964;53.890;25.340;2022-07-22T09:50:36;1023.9;;;32.4;32.2
57374;BME280;43964;53.890;25.340;2022-07-22T09:55:38;1023.8;;;32.3;32.8
57374;BME280;43964;53.890;25.340;2022-07-22T10:00:37;1023.8;;;32.6;33
57374;BME280;43964;53.890;25.340;2022-07-22T10:05:37;1023.8;;;32.9;33.4
57374;BME280;43964;53.890;25.340;2022-07-22T10:10:37;1023.8;;;33;32
57374;BME280;43964;53.890;25.340;2022-07-22T10:15:37;1023.8;;;33;31.5
57374;BME280;43964;53.890;25.340;2022-07-22T10:20:36;1023.8;;;32.9;31.8
57374;BME280;43964;53.890;25.340;2022-07-22T10:25:53;1023.8;;;32.9;31.8
57374;BME280;43964;53.890;25.340;2022-07-22T10:30:37;1023.8;;;32.9;32.3
57374;BME280;43964;53.890;25.340;2022-07-22T10:35:38;1023.8;;;33.1;32.6
57374;BME280;43964;53.890;25.340;2022-07-22T10:40:53;1023.8;;;33;30.5
57374;BME280;43964;53.890;25.340;2022-07-22T10:45:41;1023.8;;;32.9;29.8
57374;BME280;43964;53.890;25.340;2022-07-22T10:50:38;1023.8;;;32.9;29.5
57374;BME280;43964;53.890;25.340;2022-07-22T10:55:37;1023.8;;;32.9;30.1
57374;BME280;43964;53.890;25.340;2022-07-22T11:00:36;1023.7;;;32.9;29
57374;BME280;43964;53.890;25.340;2022-07-22T11:05:36;1023.7;;;32.7;28.8
57374;BME280;43964;53.890;25.340;2022-07-22T11:10:36;1023.7;;;32.8;29.8
57374;BME280;43964;53.890;25.340;2022-07-22T11:15:36;1023.7;;;32.7;29.3
57374;BME280;43964;53.890;25.340;2022-07-22T11:20:36;1023.7;;;32.6;29.4
57374;BME280;43964;53.890;25.340;2022-07-22T11:25:37;1023.7;;;32.6;29.3
57374;BME280;43964;53.890;25.340;2022-07-22T11:30:36;1023.6;;;32.7;29.9
57374;BME280;43964;53.890;25.340;2022-07-22T11:35:36;1023.7;;;32.8;30.1
57374;BME280;43964;53.890;25.340;2022-07-22T11:40:36;1023.6;;;32.8;29.9
57374;BME280;43964;53.890;25.340;2022-07-22T11:45:53;1023.6;;;32.7;29.8
57374;BME280;43964;53.890;25.340;2022-07-22T11:50:36;1023.6;;;32.7;29.9
57374;BME280;43964;53.890;25.340;2022-07-22T11:55:36;1023.6;;;32.7;29.9
57374;BME280;43964;53.890;25.340;2022-07-22T12:00:36;1023.6;;;32.8;29.9
57374;BME280;43964;53.890;25.340;2022-07-22T12:05:36;1023.6;;;32.9;29.6
57374;BME280;43964;53.890;25.340;2022-07-22T12:10:36;1023.6;;;32.9;29.7
57374;BME280;43964;53.890;25.340;2022-07-22T12:15:36;1023.6;;;32.9;29.8
57374;BME280;43964;53.890;25.340;2022-07-22T12:20:42;1023.5;;;32.9;30.3
57374;BME280;43964;53.890;25.340;2022-07-22T12:25:53;1023.6;;;33;30.8
57374;BME280;43964;53.890;25.340;2022-07-22T12:30:36;1023.5;;;33.1;30.4
57374;BME280;43964;53.890;25.340;2022-07-22T12:35:36;1023.5;;;33.1;30.4
57374;BME280;43964;53.890;25.340;2022-07-22T12:40:37;1023.4;;;33.3;30.6
57374;BME280;43964;53.890;25.340;2022-07-22T12:45:37;1023.3;;;33.4;29.7
57374;BME280;43964;53.890;25.340;2022-07-22T12:50:37;1023.3;;;33.2;29.7
57374;BME280;43964;53.890;25.340;2022-07-22T12:55:45;1023.3;;;33.2;29.7
57374;BME280;43964;53.890;25.340;2022-07-22T13:00:37;1023.2;;;33.2;30.3
57374;BME280;43964;53.890;25.340;2022-07-22T13:05:36;1023.1;;;33.2;29.9
57374;BME280;43964;53.890;25.340;2022-07-22T13:10:37;1023;;;33;30.1
57374;BME280;43964;53.890;25.340;2022-07-22T13:15:37;1022.9;;;32.9;30.2
57374;BME280;43964;53.890;25.340;2022-07-22T13:20:36;1022.9;;;32.8;30.7
57374;BME280;43964;53.890;25.340;2022-07-22T13:25:36;1022.9;;;32.6;30.5
57374;BME280;43964;53.890;25.340;2022-07-22T13:30:36;1022.9;;;32.7;31.2
57374;BME280;43964;53.890;25.340;2022-07-22T13:35:36;1022.9;;;32.8;30.7
57374;BME280;43964;53.890;25.340;2022-07-22T13:40:36;1022.9;;;32.8;30.6
57374;BME280;43964;53.890;25.340;2022-07-22T13:45:36;1022.8;;;32.8;31.1
57374;BME280;43964;53.890;25.340;2022-07-22T13:50:36;1022.9;;;33;30.9
57374;BME280;43964;53.890;25.340;2022-07-22T13:55:37;1022.9;;;33;30.8
57374;BME280;43964;53.890;25.340;2022-07-22T14:00:36;1022.9;;;32.9;30.8
57374;BME280;43964;53.890;25.340;2022-07-22T14:05:36;1022.9;;;32.8;30.7
57374;BME280;43964;53.890;25.340;2022-07-22T14:10:37;1022.9;;;32.6;30.9
57374;BME280;43964;53.890;25.340;2022-07-22T14:15:37;1022.9;;;32.4;31.1
57374;BME280;43964;53.890;25.340;2022-07-22T14:20:36;1022.8;;;32.4;31
57374;BME280;43964;53.890;25.340;2022-07-22T14:25:37;1022.8;;;32.5;31.6
57374;BME280;43964;53.890;25.340;2022-07-22T14:30:36;1022.8;;;32.5;31
57374;BME280;43964;53.890;25.340;2022-07-22T14:35:36;1022.7;;;32.5;31.2
57374;BME280;43964;53.890;25.340;2022-07-22T14:40:36;1022.7;;;32.5;31.2
57374;BME280;43964;53.890;25.340;2022-07-22T14:45:36;1022.7;;;32.6;31.4
57374;BME280;43964;53.890;25.340;2022-07-22T14:50:36;1022.8;;;32.7;31.3
57374;BME280;43964;53.890;25.340;2022-07-22T14:55:36;1022.8;;;32.6;31
57374;BME280;43964;53.890;25.340;2022-07-22T15:00:36;1022.8;;;32.5;30.4
57374;BME280;43964;53.890;25.340;2022-07-22T15:05:36;1022.7;;;32.5;30.5
57374;BME280;43964;53.890;25.340;2022-07-22T15:10:37;1022.7;;;32.5;30.8
57374;BME280;43964;53.890;25.340;2022-07-22T15:15:36;1022.7;;;32.4;30.8
57374;BME280;43964;53.890;25.340;2022-07-22T15:20:36;1022.7;;;32.3;30.9
57374;BME280;43964;53.890;25.340;2022-07-22T15:25:36;1022.6;;;32.3;30.7
57374;BME280;43964;53.890;25.340;2022-07-22T15:30:36;1022.6;;;32.3;30.6
57374;BME280;43964;53.890;25.340;2022-07-22T15:35:36;1022.6;;;32.2;30.8
57374;BME280;43964;53.890;25.340;2022-07-22T15:40:37;1022.5;;;32.2;31.2
57374;BME280;43964;53.890;25.340;2022-07-22T15:45:36;1022.5;;;32.1;30.7
57374;BME280;43964;53.890;25.340;2022-07-22T15:50:36;1022.5;;;32.2;30.8
57374;BME280;43964;53.890;25.340;2022-07-22T15:55:36;1022.5;;;32;31.4
57374;BME280;43964;53.890;25.340;2022-07-22T16:00:37;1022.5;;;31.9;31.1
57374;BME280;43964;53.890;25.340;2022-07-22T16:05:36;1022.5;;;31.9;31.1
57374;BME280;43964;53.890;25.340;2022-07-22T16:10:36;1022.5;;;31.8;31.2
57374;BME280;43964;53.890;25.340;2022-07-22T16:15:37;1022.5;;;31.8;31
57374;BME280;43964;53.890;25.340;2022-07-22T16:20:37;1022.5;;;31.8;31.8
57374;BME280;43964;53.890;25.340;2022-07-22T16:25:36;1022.5;;;31.8;31.9
57374;BME280;43964;53.890;25.340;2022-07-22T16:30:36;1022.5;;;31.7;31.5
57374;BME280;43964;53.890;25.340;2022-07-22T16:35:36;1022.5;;;31.6;30.9
57374;BME280;43964;53.890;25.340;2022-07-22T16:40:36;1022.4;;;31.5;30.2
57374;BME280;43964;53.890;25.340;2022-07-22T16:45:36;1022.4;;;31.4;34.7
57374;BME280;43964;53.890;25.340;2022-07-22T16:50:36;1022.3;;;31.1;34.9
57374;BME280;43964;53.890;25.340;2022-07-22T16:55:36;1022.3;;;30.7;36.3
57374;BME280;43964;53.890;25.340;2022-07-22T17:00:36;1022.3;;;30.5;36.9
57374;BME280;43964;53.890;25.340;2022-07-22T17:05:36;1022.3;;;30.3;38.2
57374;BME280;43964;53.890;25.340;2022-07-22T17:10:36;1022.3;;;30.1;39.7
57374;BME280;43964;53.890;25.340;2022-07-22T17:15:36;1022.3;;;29.9;39.3
57374;BME280;43964;53.890;25.340;2022-07-22T17:20:36;1022.2;;;29.6;39.2
57374;BME280;43964;53.890;25.340;2022-07-22T17:25:36;1022.2;;;29.2;42.3
57374;BME280;43964;53.890;25.340;2022-07-22T17:30:36;1022.2;;;28.9;42.8
57374;BME280;43964;53.890;25.340;2022-07-22T17:35:36;1022.3;;;28.8;43
57374;BME280;43964;53.890;25.340;2022-07-22T17:40:37;1022.3;;;28.5;42.3
57374;BME280;43964;53.890;25.340;2022-07-22T17:45:36;1022.3;;;28.3;42.7
57374;BME280;43964;53.890;25.340;2022-07-22T17:50:37;1022.3;;;27.9;44.2
57374;BME280;43964;53.890;25.340;2022-07-22T17:55:36;1022.3;;;27.8;46.1
57374;BME280;43964;53.890;25.340;2022-07-22T18:00:36;1022.3;;;27.9;45.5
57374;BME280;43964;53.890;25.340;2022-07-22T18:05:36;1022.3;;;28;45.1
57374;BME280;43964;53.890;25.340;2022-07-22T18:10:36;1022.3;;;28;45.1
57374;BME280;43964;53.890;25.340;2022-07-22T18:15:37;1022.3;;;27.8;45.8
57374;BME280;43964;53.890;25.340;2022-07-22T18:20:36;1022.3;;;27.5;46.1
57374;BME280;43964;53.890;25.340;2022-07-22T18:25:37;1022.4;;;27.2;47.4
57374;BME280;43964;53.890;25.340;2022-07-22T18:30:37;1022.4;;;27;48.3
57374;BME280;43964;53.890;25.340;2022-07-22T18:35:36;1022.4;;;26.8;48.8
57374;BME280;43964;53.890;25.340;2022-07-22T18:40:36;1022.4;;;26.6;49
57374;BME280;43964;53.890;25.340;2022-07-22T18:45:36;1022.4;;;26.6;49.2
57374;BME280;43964;53.890;25.340;2022-07-22T18:50:36;1022.5;;;26.5;48.9
57374;BME280;43964;53.890;25.340;2022-07-22T18:55:36;1022.5;;;26.3;48.9
57374;BME280;43964;53.890;25.340;2022-07-22T19:00:36;1022.4;;;26;49.2
57374;BME280;43964;53.890;25.340;2022-07-22T19:05:36;1022.4;;;25.9;50.9
57374;BME280;43964;53.890;25.340;2022-07-22T19:10:36;1022.3;;;25.9;51.5
57374;BME280;43964;53.890;25.340;2022-07-22T19:15:36;1022.3;;;25.8;51.4
57374;BME280;43964;53.890;25.340;2022-07-22T19:20:37;1022.3;;;25.7;52
57374;BME280;43964;53.890;25.340;2022-07-22T19:25:36;1022.3;;;25.7;51.4
57374;BME280;43964;53.890;25.340;2022-07-22T19:30:37;1022.3;;;25.8;51.5
57374;BME280;43964;53.890;25.340;2022-07-22T19:35:37;1022.3;;;25.8;52.3
57374;BME280;43964;53.890;25.340;2022-07-22T19:40:36;1022.3;;;25.7;52.6
57374;BME280;43964;53.890;25.340;2022-07-22T19:45:36;1022.3;;;25.7;52.4
57374;BME280;43964;53.890;25.340;2022-07-22T19:50:36;1022.2;;;25.5;51.4
57374;BME280;43964;53.890;25.340;2022-07-22T19:55:36;1022.2;;;25.2;52.9
57374;BME280;43964;53.890;25.340;2022-07-22T20:00:36;1022.3;;;25.3;53.5
57374;BME280;43964;53.890;25.340;2022-07-22T20:05:36;1022.4;;;25.3;53.6
57374;BME280;43964;53.890;25.340;2022-07-22T20:10:36;1022.4;;;25.4;52.7
57374;BME280;43964;53.890;25.340;2022-07-22T20:15:36;1022.4;;;25.5;52.9
57374;BME280;43964;53.890;25.340;2022-07-22T20:20:36;1022.4;;;25.6;53.1
57374;BME280;43964;53.890;25.340;2022-07-22T20:25:37;1022.5;;;25.5;53.8
57374;BME280;43964;53.890;25.340;2022-07-22T20:30:37;1022.5;;;25.4;53.6
57374;BME280;43964;53.890;25.340;2022-07-22T20:35:36;1022.5;;;25.3;53.9
57374;BME280;43964;53.890;25.340;2022-07-22T20:40:36;1022.6;;;25.1;54.2
57374;BME280;43964;53.890;25.340;2022-07-22T20:45:36;1022.6;;;24.9;54.6
57374;BME280;43964;53.890;25.340;2022-07-22T20:50:36;1022.7;;;24.7;54.9
57374;BME280;43964;53.890;25.340;2022-07-22T20:55:37;1022.8;;;24.7;55
57374;BME280;43964;53.890;25.340;2022-07-22T21:00:36;1022.7;;;24.9;54.4
57374;BME280;43964;53.890;25.340;2022-07-22T21:05:36;1022.7;;;25;54.5
57374;BME280;43964;53.890;25.340;2022-07-22T21:10:36;1022.8;;;24.8;55.3
57374;BME280;43964;53.890;25.340;2022-07-22T21:15:36;1022.8;;;24.6;55.8
57374;BME280;43964;53.890;25.340;2022-07-22T21:20:36;1022.8;;;24.3;56.8
57374;BME280;43964;53.890;25.340;2022-07-22T21:25:36;1022.8;;;24.3;56.6
57374;BME280;43964;53.890;25.340;2022-07-22T21:30:36;1022.8;;;24.4;56.5
57374;BME280;43964;53.890;25.340;2022-07-22T21:35:37;1022.8;;;24.5;56
57374;BME280;43964;53.890;25.340;2022-07-22T21:40:37;1022.8;;;24.7;55.4
57374;BME280;43964;53.890;25.340;2022-07-22T21:45:36;1022.9;;;24.7;55.1
57374;BME280;43964;53.890;25.340;2022-07-22T21:50:36;1022.9;;;24.8;54.8
57374;BME280;43964;53.890;25.340;2022-07-22T21:55:36;1022.9;;;24.6;55.3
57374;BME280;43964;53.890;25.340;2022-07-22T22:00:36;1022.9;;;24.5;55.1
57374;BME280;43964;53.890;25.340;2022-07-22T22:05:36;1022.9;;;24.7;54.9
57374;BME280;43964;53.890;25.340;2022-07-22T22:10:36;1022.8;;;24.8;54.7
57374;BME280;43964;53.890;25.340;2022-07-22T22:15:37;1022.9;;;24.7;54.8
57374;BME280;43964;53.890;25.340;2022-07-22T22:20:37;1022.9;;;24.5;55.7
57374;BME280;43964;53.890;25.340;2022-07-22T22:25:37;1022.9;;;24.3;55.7
57374;BME280;43964;53.890;25.340;2022-07-22T22:30:36;1022.9;;;24.4;55.6
57374;BME280;43964;53.890;25.340;2022-07-22T22:35:36;1022.9;;;24.3;55.9
57374;BME280;43964;53.890;25.340;2022-07-22T22:40:37;1022.9;;;24;56.4
57374;BME280;43964;53.890;25.340;2022-07-22T22:45:36;1022.9;;;23.7;56.8
57374;BME280;43964;53.890;25.340;2022-07-22T22:50:36;1022.8;;;23.6;56.9
57374;BME280;43964;53.890;25.340;2022-07-22T22:55:37;1022.7;;;23.6;57
57374;BME280;43964;53.890;25.340;2022-07-22T23:00:36;1022.7;;;23.6;57.3
57374;BME280;43964;53.890;25.340;2022-07-22T23:05:37;1022.7;;;23.4;58.1
57374;BME280;43964;53.890;25.340;2022-07-22T23:10:36;1022.7;;;23.3;58.5
57374;BME280;43964;53.890;25.340;2022-07-22T23:15:36;1022.7;;;23.1;58.9
57374;BME280;43964;53.890;25.340;2022-07-22T23:20:37;1022.6;;;23;59
57374;BME280;43964;53.890;25.340;2022-07-22T23:25:36;1022.6;;;23.2;58.5
57374;BME280;43964;53.890;25.340;2022-07-22T23:30:37;1022.5;;;23.4;57.7
57374;BME280;43964;53.890;25.340;2022-07-22T23:35:37;1022.5;;;23.5;57.1
57374;BME280;43964;53.890;25.340;2022-07-22T23:40:37;1022.6;;;23.6;56.7
57374;BME280;43964;53.890;25.340;2022-07-22T23:45:36;1022.6;;;23.7;56.5
57374;BME280;43964;53.890;25.340;2022-07-22T23:50:37;1022.6;;;23.8;56.2
57374;BME280;43964;53.890;25.340;2022-07-22T23:55:37;1022.6;;;23.9;55.9
